Time,TemperatureF,DewpointF,PressureIn,WindDirection,WindDirectionDegrees,WindSpeedMPH,WindSpeedGustMPH,Humidity,HourlyPrecipIn,Conditions,Clouds,dailyrainin,SoftwareType,DateUTC
2013-07-12 00:02:00,57.6,38.0,29.88,South,173,0.0,2.7,48,0.00,,---,0.00,VWS V14.01,2013-07-12 06:02:00,
2013-07-12 00:07:00,57.4,37.9,29.88,South,173,0.0,2.7,48,0.00,,---,0.00,VWS V14.01,2013-07-12 06:07:00,
2013-07-12 00:12:00,56.8,37.4,29.88,SSW,197,0.0,2.7,48,0.00,,---,0.00,VWS V14.01,2013-07-12 06:12:00,
2013-07-12 00:17:00,56.8,37.9,29.88,SSW,208,0.0,0.0,49,0.00,,---,0.00,VWS V14.01,2013-07-12 06:17:00,
2013-07-12 00:22:00,56.5,37.6,29.88,SSW,208,0.0,0.0,49,0.00,,---,0.00,VWS V14.01,2013-07-12 06:22:00,
2013-07-12 00:27:00,55.9,37.1,29.88,SSW,208,0.0,0.0,49,0.00,,---,0.00,VWS V14.01,2013-07-12 06:27:00,
2013-07-12 00:32:00,55.0,36.2,29.88,SSW,208,0.0,0.0,49,0.00,,---,0.00,VWS V14.01,2013-07-12 06:32:00,
2013-07-12 00:37:00,54.3,36.1,29.88,SSW,208,0.0,0.0,50,0.00,,---,0.00,VWS V14.01,2013-07-12 06:37:00,
2013-07-12 00:42:00,53.8,35.6,29.88,SW,223,0.0,0.0,50,0.00,,---,0.00,VWS V14.01,2013-07-12 06:42:00,
2013-07-12 00:47:00,53.4,35.8,29.88,SW,223,0.0,0.0,51,0.00,,---,0.00,VWS V14.01,2013-07-12 06:47:00,
2013-07-12 00:52:00,53.2,36.1,29.88,SW,223,0.0,0.0,52,0.00,,---,0.00,VWS V14.01,2013-07-12 06:52:00,
2013-07-12 00:57:00,53.2,36.6,29.88,West,261,0.0,2.7,53,0.00,,---,0.00,VWS V14.01,2013-07-12 06:57:00,
2013-07-12 01:02:00,53.4,36.7,29.88,West,261,0.0,0.0,53,0.00,,---,0.00,VWS V14.01,2013-07-12 07:02:00,
2013-07-12 01:07:00,53.8,37.5,29.88,WSW,248,0.0,3.1,54,0.00,,---,0.00,VWS V14.01,2013-07-12 07:07:00,
2013-07-12 01:12:00,53.8,37.1,29.88,WSW,253,0.0,3.1,53,0.00,,---,0.00,VWS V14.01,2013-07-12 07:12:00,
2013-07-12 01:17:00,53.8,37.1,29.88,WSW,250,0.0,0.0,53,0.00,,---,0.00,VWS V14.01,2013-07-12 07:17:00,
2013-07-12 01:22:00,53.6,37.4,29.91,WSW,258,0.0,0.0,54,0.00,,---,0.00,VWS V14.01,2013-07-12 07:22:00,
2013-07-12 01:27:00,53.4,37.2,29.91,SSE,166,0.0,0.0,54,0.00,,---,0.00,VWS V14.01,2013-07-12 07:27:00,
2013-07-12 01:32:00,54.0,37.7,29.91,WSW,243,0.0,0.0,54,0.00,,---,0.00,VWS V14.01,2013-07-12 07:32:00,
2013-07-12 01:37:00,54.0,37.2,29.91,WSW,237,0.0,0.0,53,0.00,,---,0.00,VWS V14.01,2013-07-12 07:37:00,
2013-07-12 01:42:00,53.6,36.9,29.91,WSW,237,0.0,0.0,53,0.00,,---,0.00,VWS V14.01,2013-07-12 07:42:00,
2013-07-12 01:47:00,53.2,36.6,29.91,WSW,237,0.0,0.0,53,0.00,,---,0.00,VWS V14.01,2013-07-12 07:47:00,
2013-07-12 01:52:00,52.5,35.9,29.91,WSW,237,0.0,0.0,53,0.00,,---,0.00,VWS V14.01,2013-07-12 07:52:00,
2013-07-12 01:57:00,52.0,35.4,29.91,WSW,237,0.0,0.0,53,0.00,,---,0.00,VWS V14.01,2013-07-12 07:57:00,
2013-07-12 02:02:00,51.6,35.1,29.91,WSW,237,0.0,0.0,53,0.00,,---,0.00,VWS V14.01,2013-07-12 08:02:00,
2013-07-12 02:07:00,51.6,35.5,29.91,West,265,0.0,4.0,54,0.00,,---,0.00,VWS V14.01,2013-07-12 08:07:00,
2013-07-12 02:12:00,51.6,36.0,29.91,West,265,0.0,4.0,55,0.00,,---,0.00,VWS V14.01,2013-07-12 08:12:00,
2013-07-12 02:17:00,51.6,36.0,29.91,SSW,194,0.0,0.0,55,0.00,,---,0.00,VWS V14.01,2013-07-12 08:17:00,
2013-07-12 02:22:00,52.2,36.5,29.91,SSW,207,3.1,4.0,55,0.00,,---,0.00,VWS V14.01,2013-07-12 08:22:00,
2013-07-12 02:27:00,52.9,37.2,29.91,SSW,200,4.0,4.9,55,0.00,,---,0.00,VWS V14.01,2013-07-12 08:27:00,
2013-07-12 02:32:00,53.4,37.7,29.91,SSW,205,2.7,4.0,55,0.00,,---,0.00,VWS V14.01,2013-07-12 08:32:00,
2013-07-12 02:37:00,53.2,37.0,29.91,WSW,241,0.0,4.0,54,0.00,,---,0.00,VWS V14.01,2013-07-12 08:37:00,
2013-07-12 02:42:00,52.7,36.1,29.91,WSW,241,0.0,4.0,53,0.00,,---,0.00,VWS V14.01,2013-07-12 08:42:00,
2013-07-12 02:47:00,52.0,35.4,29.91,WSW,241,0.0,0.0,53,0.00,,---,0.00,VWS V14.01,2013-07-12 08:47:00,
2013-07-12 02:52:00,52.2,36.0,29.91,South,189,0.0,3.1,54,0.00,,---,0.00,VWS V14.01,2013-07-12 08:52:00,
2013-07-12 02:57:00,52.2,35.6,29.91,South,189,0.0,3.1,53,0.00,,---,0.00,VWS V14.01,2013-07-12 08:57:00,
2013-07-12 03:02:00,51.8,35.2,29.91,South,189,0.0,0.0,53,0.00,,---,0.00,VWS V14.01,2013-07-12 09:02:00,
2013-07-12 03:07:00,51.6,35.5,29.91,SW,218,0.0,0.0,54,0.00,,---,0.00,VWS V14.01,2013-07-12 09:07:00,
2013-07-12 03:12:00,51.3,35.2,29.91,SW,218,0.0,0.0,54,0.00,,---,0.00,VWS V14.01,2013-07-12 09:12:00,
2013-07-12 03:17:00,50.9,34.9,29.91,SW,219,0.0,0.0,54,0.00,,---,0.00,VWS V14.01,2013-07-12 09:17:00,
2013-07-12 03:22:00,50.7,34.7,29.91,SW,219,0.0,0.0,54,0.00,,---,0.00,VWS V14.01,2013-07-12 09:22:00,
2013-07-12 03:27:00,50.7,34.7,29.91,SSW,206,0.0,0.0,54,0.00,,---,0.00,VWS V14.01,2013-07-12 09:27:00,
2013-07-12 03:32:00,50.7,34.7,29.91,SW,233,0.0,2.2,54,0.00,,---,0.00,VWS V14.01,2013-07-12 09:32:00,
2013-07-12 03:37:00,50.9,35.3,29.91,SSW,206,2.7,3.6,55,0.00,,---,0.00,VWS V14.01,2013-07-12 09:37:00,
2013-07-12 03:42:00,51.1,35.0,29.91,SW,217,0.0,3.6,54,0.00,,---,0.00,VWS V14.01,2013-07-12 09:42:00,
2013-07-12 03:47:00,50.7,34.7,29.91,SW,223,0.0,0.0,54,0.00,,---,0.00,VWS V14.01,2013-07-12 09:47:00,
2013-07-12 03:52:00,50.5,34.5,29.91,SW,223,0.0,0.0,54,0.00,,---,0.00,VWS V14.01,2013-07-12 09:52:00,
2013-07-12 03:57:00,50.2,34.2,29.91,SW,223,0.0,0.0,54,0.00,,---,0.00,VWS V14.01,2013-07-12 09:57:00,
2013-07-12 04:02:00,50.2,34.7,29.91,SW,224,0.0,0.0,55,0.00,,---,0.00,VWS V14.01,2013-07-12 10:02:00,
2013-07-12 04:07:00,50.4,34.8,29.91,SW,222,2.2,3.1,55,0.00,,---,0.00,VWS V14.01,2013-07-12 10:07:00,
2013-07-12 04:12:00,50.5,35.0,29.91,SW,222,0.0,3.1,55,0.00,,---,0.00,VWS V14.01,2013-07-12 10:12:00,
2013-07-12 04:17:00,50.5,35.0,29.91,SW,222,0.0,0.0,55,0.00,,---,0.00,VWS V14.01,2013-07-12 10:17:00,
2013-07-12 04:22:00,50.2,34.7,29.88,SW,222,0.0,0.0,55,0.00,,---,0.00,VWS V14.01,2013-07-12 10:22:00,
2013-07-12 04:27:00,50.0,34.5,29.88,SW,222,0.0,0.0,55,0.00,,---,0.00,VWS V14.01,2013-07-12 10:27:00,
2013-07-12 04:32:00,49.6,34.6,29.88,SW,222,0.0,0.0,56,0.00,,---,0.00,VWS V14.01,2013-07-12 10:32:00,
2013-07-12 04:37:00,49.5,34.4,29.88,SW,223,0.0,0.0,56,0.00,,---,0.00,VWS V14.01,2013-07-12 10:37:00,
2013-07-12 04:42:00,49.3,34.3,29.88,SW,222,0.0,0.0,56,0.00,,---,0.00,VWS V14.01,2013-07-12 10:42:00,
2013-07-12 04:47:00,48.9,33.9,29.88,SW,222,0.0,0.0,56,0.00,,---,0.00,VWS V14.01,2013-07-12 10:47:00,
2013-07-12 04:52:00,48.7,34.2,29.88,SW,222,0.0,0.0,57,0.00,,---,0.00,VWS V14.01,2013-07-12 10:52:00,
2013-07-12 04:57:00,48.4,33.9,29.88,SW,223,0.0,0.0,57,0.00,,---,0.00,VWS V14.01,2013-07-12 10:57:00,
2013-07-12 05:02:00,48.2,33.7,29.88,SW,222,0.0,0.0,57,0.00,,---,0.00,VWS V14.01,2013-07-12 11:02:00,
2013-07-12 05:07:00,48.2,33.7,29.91,SW,222,0.0,0.0,57,0.00,,---,0.00,VWS V14.01,2013-07-12 11:07:00,
2013-07-12 05:12:00,48.2,34.1,29.91,West,265,0.0,3.1,58,0.00,,---,0.00,VWS V14.01,2013-07-12 11:12:00,
2013-07-12 05:17:00,48.0,34.0,29.91,West,265,0.0,0.0,58,0.00,,---,0.00,VWS V14.01,2013-07-12 11:17:00,
2013-07-12 05:22:00,48.0,34.4,29.91,West,265,0.0,0.0,59,0.00,,---,0.00,VWS V14.01,2013-07-12 11:22:00,
2013-07-12 05:27:00,48.0,34.4,29.91,WSW,257,0.0,0.0,59,0.00,,---,0.00,VWS V14.01,2013-07-12 11:27:00,
2013-07-12 05:32:00,48.6,35.3,29.91,SW,226,2.7,3.1,60,0.00,,---,0.00,VWS V14.01,2013-07-12 11:32:00,
2013-07-12 05:37:00,49.6,36.3,29.91,SW,236,0.0,4.0,60,0.00,,---,0.00,VWS V14.01,2013-07-12 11:37:00,
2013-07-12 05:42:00,49.5,35.3,29.91,SW,236,0.0,4.0,58,0.00,,---,0.00,VWS V14.01,2013-07-12 11:42:00,
2013-07-12 05:47:00,49.1,35.0,29.91,SW,236,0.0,0.0,58,0.00,,---,0.00,VWS V14.01,2013-07-12 11:47:00,
2013-07-12 05:52:00,48.7,34.6,29.91,SW,236,0.0,0.0,58,0.00,,---,0.00,VWS V14.01,2013-07-12 11:52:00,
2013-07-12 05:57:00,48.6,34.5,29.91,SW,236,0.0,0.0,58,0.00,,---,0.00,VWS V14.01,2013-07-12 11:57:00,
2013-07-12 06:02:00,48.0,34.0,29.91,SW,236,0.0,0.0,58,0.00,,---,0.00,VWS V14.01,2013-07-12 12:02:00,
2013-07-12 06:07:00,47.7,33.6,29.91,SW,236,0.0,0.0,58,0.00,,---,0.00,VWS V14.01,2013-07-12 12:07:00,
2013-07-12 06:12:00,47.3,33.3,29.91,WSW,244,0.0,0.0,58,0.00,,---,0.00,VWS V14.01,2013-07-12 12:12:00,
2013-07-12 06:17:00,47.1,33.5,29.91,WSW,244,0.0,0.0,59,0.00,,---,0.00,VWS V14.01,2013-07-12 12:17:00,
2013-07-12 06:22:00,47.1,33.5,29.91,WSW,244,0.0,0.0,59,0.00,,---,0.00,VWS V14.01,2013-07-12 12:22:00,
2013-07-12 06:27:00,47.1,34.0,29.91,WSW,244,0.0,0.0,60,0.00,,---,0.00,VWS V14.01,2013-07-12 12:27:00,
2013-07-12 06:32:00,47.3,34.5,29.91,WSW,244,0.0,0.0,61,0.00,,---,0.00,VWS V14.01,2013-07-12 12:32:00,
2013-07-12 06:37:00,47.7,34.9,29.91,WSW,244,0.0,0.0,61,0.00,,---,0.00,VWS V14.01,2013-07-12 12:37:00,
2013-07-12 06:42:00,48.0,35.2,29.91,WSW,244,0.0,0.0,61,0.00,,---,0.00,VWS V14.01,2013-07-12 12:42:00,
2013-07-12 06:47:00,48.4,35.6,29.91,WSW,244,0.0,0.0,61,0.00,,---,0.00,VWS V14.01,2013-07-12 12:47:00,
2013-07-12 06:52:00,48.9,36.1,29.91,WSW,244,0.0,0.0,61,0.00,,---,0.00,VWS V14.01,2013-07-12 12:52:00,
2013-07-12 06:57:00,49.5,37.0,29.91,WSW,244,0.0,0.0,62,0.00,,---,0.00,VWS V14.01,2013-07-12 12:57:00,
2013-07-12 07:02:00,49.6,36.8,29.91,WSW,244,0.0,0.0,61,0.00,,---,0.00,VWS V14.01,2013-07-12 13:02:00,
2013-07-12 07:07:00,49.8,36.9,29.91,WSW,244,0.0,0.0,61,0.00,,---,0.00,VWS V14.01,2013-07-12 13:07:00,
2013-07-12 07:12:00,49.8,36.9,29.91,WSW,244,0.0,0.0,61,0.00,,---,0.00,VWS V14.01,2013-07-12 13:12:00,
2013-07-12 07:17:00,50.0,37.1,29.91,WSW,244,0.0,0.0,61,0.00,,---,0.00,VWS V14.01,2013-07-12 13:17:00,
2013-07-12 07:22:00,50.4,37.4,29.91,WSW,244,0.0,0.0,61,0.00,,---,0.00,VWS V14.01,2013-07-12 13:22:00,
2013-07-12 07:27:00,50.9,38.4,29.91,WSW,244,0.0,0.0,62,0.00,,---,0.00,VWS V14.01,2013-07-12 13:27:00,
2013-07-12 07:32:00,51.6,39.0,29.91,WSW,244,0.0,0.0,62,0.00,,---,0.00,VWS V14.01,2013-07-12 13:32:00,
2013-07-12 07:37:00,53.1,40.8,29.91,WSW,244,0.0,0.0,63,0.00,,---,0.00,VWS V14.01,2013-07-12 13:37:00,
2013-07-12 07:42:00,55.0,42.3,29.91,WSW,244,0.0,0.0,62,0.00,,---,0.00,VWS V14.01,2013-07-12 13:42:00,
2013-07-12 07:47:00,57.0,43.3,29.91,WSW,244,0.0,0.0,60,0.00,,---,0.00,VWS V14.01,2013-07-12 13:47:00,
2013-07-12 07:52:00,59.0,43.8,29.91,WSW,244,0.0,0.0,57,0.00,,---,0.00,VWS V14.01,2013-07-12 13:52:00,
2013-07-12 07:57:00,60.6,44.4,29.91,WSW,244,0.0,0.0,55,0.00,,---,0.00,VWS V14.01,2013-07-12 13:57:00,
2013-07-12 08:02:00,61.2,42.4,29.91,WSW,244,0.0,0.0,50,0.00,,---,0.00,VWS V14.01,2013-07-12 14:02:00,
2013-07-12 08:07:00,61.7,40.7,29.91,WSW,244,0.0,0.0,46,0.00,,---,0.00,VWS V14.01,2013-07-12 14:07:00,
2013-07-12 08:12:00,61.3,34.9,29.91,WSW,245,0.0,0.0,37,0.00,,---,0.00,VWS V14.01,2013-07-12 14:12:00,
2013-07-12 08:17:00,60.8,33.7,29.91,WSW,257,0.0,0.0,36,0.00,,---,0.00,VWS V14.01,2013-07-12 14:17:00,
2013-07-12 08:22:00,61.5,34.3,29.91,West,270,0.0,0.0,36,0.00,,---,0.00,VWS V14.01,2013-07-12 14:22:00,
2013-07-12 08:27:00,62.1,34.1,29.91,NNW,339,0.0,0.0,35,0.00,,---,0.00,VWS V14.01,2013-07-12 14:27:00,
2013-07-12 08:32:00,63.0,34.9,29.91,North,0,0.0,0.0,35,0.00,,---,0.00,VWS V14.01,2013-07-12 14:32:00,
2013-07-12 08:37:00,63.9,35.0,29.91,NE,49,0.0,3.6,34,0.00,,---,0.00,VWS V14.01,2013-07-12 14:37:00,
2013-07-12 08:42:00,65.1,35.3,29.91,East,101,0.0,3.6,33,0.00,,---,0.00,VWS V14.01,2013-07-12 14:42:00,
2013-07-12 08:47:00,65.7,35.8,29.91,East,85,0.0,4.0,33,0.00,,---,0.00,VWS V14.01,2013-07-12 14:47:00,
2013-07-12 08:52:00,66.2,34.7,29.91,NNE,17,0.0,4.0,31,0.00,,---,0.00,VWS V14.01,2013-07-12 14:52:00,
2013-07-12 08:57:00,66.6,35.8,29.91,NE,53,0.0,4.0,32,0.00,,---,0.00,VWS V14.01,2013-07-12 14:57:00,
2013-07-12 09:01:00,67.3,34.8,29.91,NE,52,0.0,3.6,30,0.00,,---,0.00,VWS V14.01,2013-07-12 15:01:00,
2013-07-12 09:06:00,67.8,35.3,29.91,East,89,2.7,3.6,30,0.00,,---,0.00,VWS V14.01,2013-07-12 15:06:00,
2013-07-12 09:12:00,68.2,33.9,29.91,East,82,0.0,3.6,28,0.00,,---,0.00,VWS V14.01,2013-07-12 15:12:00,
2013-07-12 09:16:00,68.0,33.7,29.91,ENE,74,0.0,0.0,28,0.00,,---,0.00,VWS V14.01,2013-07-12 15:16:00,
2013-07-12 09:21:00,68.0,33.7,29.91,ENE,74,0.0,0.0,28,0.00,,---,0.00,VWS V14.01,2013-07-12 15:21:00,
2013-07-12 09:26:00,68.0,33.7,29.91,NNW,342,0.0,2.7,28,0.00,,---,0.00,VWS V14.01,2013-07-12 15:26:00,
2013-07-12 09:31:00,67.8,33.5,29.91,NNW,340,0.0,0.0,28,0.00,,---,0.00,VWS V14.01,2013-07-12 15:31:00,
2013-07-12 09:36:00,67.8,34.4,29.88,North,3,0.0,0.0,29,0.00,,---,0.00,VWS V14.01,2013-07-12 15:36:00,
2013-07-12 09:41:00,68.0,34.6,29.88,North,8,0.0,0.0,29,0.00,,---,0.00,VWS V14.01,2013-07-12 15:41:00,
2013-07-12 09:46:00,68.5,34.2,29.88,North,11,0.0,0.0,28,0.00,,---,0.00,VWS V14.01,2013-07-12 15:46:00,
2013-07-12 09:51:00,69.4,34.0,29.88,East,93,0.0,0.0,27,0.00,,---,0.00,VWS V14.01,2013-07-12 15:51:00,
2013-07-12 09:56:00,70.2,33.7,29.88,NE,42,0.0,0.0,26,0.00,,---,0.00,VWS V14.01,2013-07-12 15:56:00,
2013-07-12 10:01:00,71.6,34.9,29.88,NE,39,0.0,2.7,26,0.00,,---,0.00,VWS V14.01,2013-07-12 16:01:00,
2013-07-12 10:06:00,71.6,34.0,29.88,NNE,25,0.0,2.7,25,0.00,,---,0.00,VWS V14.01,2013-07-12 16:06:00,
2013-07-12 10:11:00,72.3,34.6,29.88,North,357,0.0,5.4,25,0.00,,---,0.00,VWS V14.01,2013-07-12 16:11:00,
2013-07-12 10:16:00,72.3,34.6,29.88,ESE,119,0.0,2.2,25,0.00,,---,0.00,VWS V14.01,2013-07-12 16:16:00,
2013-07-12 10:21:00,72.3,34.6,29.88,East,87,0.0,2.7,25,0.00,,---,0.00,VWS V14.01,2013-07-12 16:21:00,
2013-07-12 10:26:00,72.3,34.6,29.88,NE,34,0.0,2.7,25,0.00,,---,0.00,VWS V14.01,2013-07-12 16:26:00,
2013-07-12 10:31:00,73.0,34.1,29.88,NE,52,0.0,0.0,24,0.00,,---,0.00,VWS V14.01,2013-07-12 16:31:00,
2013-07-12 10:36:00,73.6,33.5,29.88,NE,54,2.2,2.7,23,0.00,,---,0.00,VWS V14.01,2013-07-12 16:36:00,
2013-07-12 10:41:00,73.6,33.5,29.88,NE,43,2.7,3.6,23,0.00,,---,0.00,VWS V14.01,2013-07-12 16:41:00,
2013-07-12 10:46:00,74.1,34.0,29.88,North,7,0.0,2.7,23,0.00,,---,0.00,VWS V14.01,2013-07-12 16:46:00,
2013-07-12 10:52:00,74.8,34.6,29.88,North,2,0.0,4.0,23,0.00,,---,0.00,VWS V14.01,2013-07-12 16:52:00,
2013-07-12 10:57:00,75.2,33.8,29.88,North,2,0.0,4.0,22,0.00,,---,0.00,VWS V14.01,2013-07-12 16:57:00,
2013-07-12 11:02:00,76.1,34.5,29.88,ENE,73,3.6,4.0,22,0.00,,---,0.00,VWS V14.01,2013-07-12 17:02:00,
2013-07-12 11:07:00,77.2,35.4,29.88,NE,44,0.0,4.0,22,0.00,,---,0.00,VWS V14.01,2013-07-12 17:07:00,
2013-07-12 11:12:00,77.7,34.7,29.88,NNE,27,0.0,4.0,21,0.00,,---,0.00,VWS V14.01,2013-07-12 17:12:00,
2013-07-12 11:17:00,78.1,35.0,29.88,NE,55,4.0,4.5,21,0.00,,---,0.00,VWS V14.01,2013-07-12 17:17:00,
2013-07-12 11:22:00,78.3,35.2,29.88,ENE,62,3.6,4.5,21,0.00,,---,0.00,VWS V14.01,2013-07-12 17:22:00,
2013-07-12 11:27:00,78.8,35.6,29.88,NNE,23,0.0,4.5,21,0.00,,---,0.00,VWS V14.01,2013-07-12 17:27:00,
2013-07-12 11:32:00,78.6,35.5,29.88,North,357,0.0,2.2,21,0.00,,---,0.00,VWS V14.01,2013-07-12 17:32:00,
2013-07-12 11:37:00,79.0,34.5,29.88,NE,52,0.0,2.2,20,0.00,,---,0.00,VWS V14.01,2013-07-12 17:37:00,
2013-07-12 11:42:00,78.4,34.1,29.88,NE,36,2.2,2.2,20,0.00,,---,0.00,VWS V14.01,2013-07-12 17:42:00,
2013-07-12 11:47:00,78.6,34.2,29.88,NNW,346,0.0,0.0,20,0.00,,---,0.00,VWS V14.01,2013-07-12 17:47:00,
2013-07-12 11:52:00,78.6,35.5,29.85,NE,41,0.0,3.6,21,0.00,,---,0.00,VWS V14.01,2013-07-12 17:52:00,
2013-07-12 11:57:00,78.8,34.4,29.85,East,79,0.0,3.6,20,0.00,,---,0.00,VWS V14.01,2013-07-12 17:57:00,
2013-07-12 12:02:00,79.7,35.1,29.85,SSE,157,0.0,2.7,20,0.00,,---,0.00,VWS V14.01,2013-07-12 18:02:00,
2013-07-12 12:07:00,79.5,35.0,29.85,East,101,0.0,3.6,20,0.00,,---,0.00,VWS V14.01,2013-07-12 18:07:00,
2013-07-12 12:12:00,79.9,35.3,29.85,North,353,0.0,3.6,20,0.00,,---,0.00,VWS V14.01,2013-07-12 18:12:00,
2013-07-12 12:17:00,79.9,35.3,29.85,NE,40,0.0,3.1,20,0.00,,---,0.00,VWS V14.01,2013-07-12 18:17:00,
2013-07-12 12:23:00,80.2,35.6,29.85,North,6,0.0,3.6,20,0.00,,---,0.00,VWS V14.01,2013-07-12 18:23:00,
2013-07-12 12:28:00,80.4,35.7,29.85,NNW,339,0.0,3.6,20,0.00,,---,0.00,VWS V14.01,2013-07-12 18:28:00,
2013-07-12 12:33:00,80.1,35.4,29.85,North,3,0.0,4.0,20,0.00,,---,0.00,VWS V14.01,2013-07-12 18:33:00,
2013-07-12 12:38:00,80.2,35.6,29.85,NNE,21,0.0,4.0,20,0.00,,---,0.00,VWS V14.01,2013-07-12 18:38:00,
2013-07-12 12:43:00,81.3,36.5,29.85,ENE,64,0.0,4.0,20,0.00,,---,0.00,VWS V14.01,2013-07-12 18:43:00,
2013-07-12 12:48:00,79.5,35.0,29.85,NNW,335,0.0,2.2,20,0.00,,---,0.00,VWS V14.01,2013-07-12 18:48:00,
2013-07-12 12:53:00,79.5,35.0,29.85,WNW,295,0.0,2.2,20,0.00,,---,0.00,VWS V14.01,2013-07-12 18:53:00,
2013-07-12 12:58:00,80.6,35.9,29.85,NE,47,2.7,3.1,20,0.00,,---,0.00,VWS V14.01,2013-07-12 18:58:00,
2013-07-12 13:03:00,80.2,35.6,29.85,NNE,27,0.0,2.2,20,0.00,,---,0.00,VWS V14.01,2013-07-12 19:03:00,
2013-07-12 13:08:00,82.2,37.2,29.85,NE,39,2.7,3.1,20,0.00,,---,0.00,VWS V14.01,2013-07-12 19:08:00,
2013-07-12 13:13:00,82.8,36.3,29.85,ENE,78,3.6,4.0,19,0.00,,---,0.00,VWS V14.01,2013-07-12 19:13:00,
2013-07-12 13:18:00,81.9,36.9,29.82,ESE,108,0.0,2.7,20,0.00,,---,0.00,VWS V14.01,2013-07-12 19:18:00,
2013-07-12 13:24:00,80.1,35.4,29.82,North,357,0.0,2.7,20,0.00,,---,0.00,VWS V14.01,2013-07-12 19:24:00,
2013-07-12 13:28:00,77.7,33.5,29.82,NNE,25,0.0,2.7,20,0.00,,---,0.00,VWS V14.01,2013-07-12 19:28:00,
2013-07-12 13:33:00,76.3,33.5,29.82,West,267,0.0,0.0,21,0.00,,---,0.00,VWS V14.01,2013-07-12 19:33:00,
2013-07-12 13:39:00,75.4,33.9,29.82,NNW,345,0.0,3.1,22,0.00,,---,0.00,VWS V14.01,2013-07-12 19:39:00,
2013-07-12 13:44:00,72.1,34.4,29.82,NE,43,0.0,3.1,25,0.00,,---,0.00,VWS V14.01,2013-07-12 19:44:00,
2013-07-12 13:49:00,73.0,36.2,29.82,WSW,241,2.2,4.9,26,0.00,,---,0.00,VWS V14.01,2013-07-12 19:49:00,
2013-07-12 13:55:00,74.1,38.0,29.82,West,264,0.0,4.9,27,0.00,,---,0.00,VWS V14.01,2013-07-12 19:55:00,
2013-07-12 14:00:00,71.2,39.1,29.82,West,265,0.0,4.9,31,0.00,,---,0.00,VWS V14.01,2013-07-12 20:00:00,
2013-07-12 14:05:00,71.2,39.9,29.82,West,265,0.0,0.0,32,0.00,,---,0.00,VWS V14.01,2013-07-12 20:05:00,
2013-07-12 14:10:00,72.3,35.5,29.82,WSW,252,3.6,5.8,26,0.00,,---,0.00,VWS V14.01,2013-07-12 20:10:00,
2013-07-12 14:15:00,73.2,39.1,29.82,South,187,3.6,8.7,29,0.00,,---,0.00,VWS V14.01,2013-07-12 20:15:00,
2013-07-12 14:20:00,74.3,35.2,29.82,East,81,2.7,7.6,24,0.00,,---,0.00,VWS V14.01,2013-07-12 20:20:00,
2013-07-12 14:25:00,75.4,33.9,29.82,North,3,3.6,7.6,22,0.00,,---,0.00,VWS V14.01,2013-07-12 20:25:00,
2013-07-12 14:30:00,76.5,32.5,29.82,SW,223,0.0,2.2,20,0.00,,---,0.00,VWS V14.01,2013-07-12 20:30:00,
2013-07-12 14:35:00,77.2,33.0,29.82,West,270,0.0,8.1,20,0.00,,---,0.00,VWS V14.01,2013-07-12 20:35:00,
2013-07-12 14:40:00,77.7,30.9,29.82,West,271,7.6,15.0,18,0.00,,---,0.00,VWS V14.01,2013-07-12 20:40:00,
2013-07-12 14:45:00,79.9,31.2,29.82,West,264,5.8,5.8,17,0.00,,---,0.00,VWS V14.01,2013-07-12 20:45:00,
2013-07-12 14:50:00,83.1,32.3,29.82,SSW,195,16.3,16.3,16,0.00,,---,0.00,VWS V14.01,2013-07-12 20:50:00,
2013-07-12 14:55:00,85.1,28.8,29.82,West,281,3.1,16.3,13,0.00,,---,0.00,VWS V14.01,2013-07-12 20:55:00,
2013-07-12 15:00:00,87.1,35.5,29.82,West,266,4.5,4.5,16,0.00,,---,0.00,VWS V14.01,2013-07-12 21:00:00,
2013-07-12 15:05:00,88.2,31.2,29.82,West,264,0.0,5.8,13,0.00,,---,0.00,VWS V14.01,2013-07-12 21:05:00,
2013-07-12 15:10:00,89.6,30.3,29.82,South,175,3.1,6.3,12,0.00,,---,0.00,VWS V14.01,2013-07-12 21:10:00,
2013-07-12 15:15:00,90.0,30.6,29.82,NNE,16,6.3,8.3,12,0.00,,---,0.00,VWS V14.01,2013-07-12 21:15:00,
2013-07-12 15:20:00,90.0,30.6,29.82,SSW,209,6.3,8.7,12,0.00,,---,0.00,VWS V14.01,2013-07-12 21:20:00,
2013-07-12 15:25:00,89.1,31.9,29.82,WNW,286,0.0,8.7,13,0.00,,---,0.00,VWS V14.01,2013-07-12 21:25:00,
2013-07-12 15:30:00,89.2,32.0,29.82,SSW,198,2.7,4.0,13,0.00,,---,0.00,VWS V14.01,2013-07-12 21:30:00,
2013-07-12 15:35:00,90.1,30.7,29.79,North,5,0.0,5.8,12,0.00,,---,0.00,VWS V14.01,2013-07-12 21:35:00,
2013-07-12 15:40:00,88.7,31.6,29.79,ESE,115,5.4,7.6,13,0.00,,---,0.00,VWS V14.01,2013-07-12 21:40:00,
2013-07-12 15:46:00,89.1,31.9,29.79,South,185,8.7,11.0,13,0.00,,---,0.00,VWS V14.01,2013-07-12 21:46:00,
2013-07-12 15:51:00,90.0,30.6,29.79,South,184,7.6,12.3,12,0.00,,---,0.00,VWS V14.01,2013-07-12 21:51:00,
2013-07-12 15:56:00,90.7,31.2,29.79,SW,214,5.8,12.3,12,0.00,,---,0.00,VWS V14.01,2013-07-12 21:56:00,
2013-07-12 16:01:00,91.0,31.4,29.79,SW,220,9.2,9.2,12,0.00,,---,0.00,VWS V14.01,2013-07-12 22:01:00,
2013-07-12 16:06:00,90.1,30.7,29.79,SSW,205,8.7,15.0,12,0.00,,---,0.00,VWS V14.01,2013-07-12 22:06:00,
2013-07-12 16:11:00,89.8,30.5,29.79,SSW,194,6.3,15.4,12,0.00,,---,0.00,VWS V14.01,2013-07-12 22:11:00,
2013-07-12 16:16:00,90.1,30.7,29.79,SSW,198,8.7,8.7,12,0.00,,---,0.00,VWS V14.01,2013-07-12 22:16:00,
2013-07-12 16:21:00,88.5,31.5,29.82,ESE,103,4.9,11.0,13,0.00,,---,0.00,VWS V14.01,2013-07-12 22:21:00,
2013-07-12 16:26:00,85.5,29.1,29.82,ESE,110,4.9,11.0,13,0.00,,---,0.00,VWS V14.01,2013-07-12 22:26:00,
2013-07-12 16:31:00,83.8,29.6,29.82,East,100,3.6,5.8,14,0.00,,---,0.00,VWS V14.01,2013-07-12 22:31:00,
2013-07-12 16:36:00,84.0,29.8,29.82,SSE,155,8.7,12.8,14,0.00,,---,0.00,VWS V14.01,2013-07-12 22:36:00,
2013-07-12 16:41:00,83.8,29.6,29.82,SSE,157,4.9,12.8,14,0.00,,---,0.00,VWS V14.01,2013-07-12 22:41:00,
2013-07-12 16:46:00,82.4,28.5,29.82,South,172,5.8,6.3,14,0.00,,---,0.00,VWS V14.01,2013-07-12 22:46:00,
2013-07-12 16:51:00,81.7,27.9,29.82,SSE,150,3.6,6.3,14,0.00,,---,0.00,VWS V14.01,2013-07-12 22:51:00,
2013-07-12 16:56:00,82.4,28.5,29.82,SE,135,3.1,6.3,14,0.00,,---,0.00,VWS V14.01,2013-07-12 22:56:00,
2013-07-12 17:01:00,81.0,27.3,29.82,SE,139,3.6,5.8,14,0.00,,---,0.00,VWS V14.01,2013-07-12 23:01:00,
2013-07-12 17:06:00,79.3,30.8,29.82,ESE,110,3.6,5.8,17,0.00,,---,0.00,VWS V14.01,2013-07-12 23:06:00,
2013-07-12 17:11:00,78.3,31.3,29.82,SE,124,3.6,5.8,18,0.00,,---,0.00,VWS V14.01,2013-07-12 23:11:00,
2013-07-12 17:16:00,77.2,33.0,29.82,ESE,106,6.3,7.6,20,0.00,,---,0.00,VWS V14.01,2013-07-12 23:16:00,
2013-07-12 17:21:00,76.3,32.3,29.82,SE,131,2.7,7.6,20,0.00,,---,0.00,VWS V14.01,2013-07-12 23:21:00,
2013-07-12 17:27:00,77.4,33.2,29.82,WSW,248,2.7,7.6,20,0.00,,---,0.00,VWS V14.01,2013-07-12 23:27:00,
2013-07-12 17:32:00,79.0,34.5,29.82,South,179,4.9,5.4,20,0.00,,---,0.00,VWS V14.01,2013-07-12 23:32:00,
2013-07-12 17:37:00,81.9,32.8,29.82,South,178,0.0,5.4,17,0.00,,---,0.00,VWS V14.01,2013-07-12 23:37:00,
2013-07-12 17:42:00,84.6,33.5,29.82,SE,124,3.1,5.4,16,0.00,,---,0.00,VWS V14.01,2013-07-12 23:42:00,
2013-07-12 17:47:00,85.1,33.9,29.82,East,89,3.6,5.8,16,0.00,,---,0.00,VWS V14.01,2013-07-12 23:47:00,
2013-07-12 17:52:00,83.5,32.6,29.82,East,95,3.1,5.8,16,0.00,,---,0.00,VWS V14.01,2013-07-12 23:52:00,
2013-07-12 17:57:00,82.9,32.2,29.82,North,10,2.7,5.8,16,0.00,,---,0.00,VWS V14.01,2013-07-12 23:57:00,
2013-07-12 18:02:00,82.9,32.2,29.82,NE,36,0.0,0.0,16,0.00,,---,0.00,VWS V14.01,2013-07-13 00:02:00,
2013-07-12 18:07:00,83.3,32.5,29.82,ENE,57,2.7,3.1,16,0.00,,---,0.00,VWS V14.01,2013-07-13 00:07:00,
2013-07-12 18:12:00,84.7,33.6,29.82,SSE,156,4.9,4.9,16,0.00,,---,0.00,VWS V14.01,2013-07-13 00:12:00,
2013-07-12 18:17:00,85.1,33.9,29.82,East,85,3.1,4.0,16,0.00,,---,0.00,VWS V14.01,2013-07-13 00:17:00,
2013-07-12 18:23:00,85.8,34.5,29.82,ESE,115,2.7,4.0,16,0.00,,---,0.00,VWS V14.01,2013-07-13 00:23:00,
2013-07-12 18:28:00,86.0,34.6,29.82,East,91,5.4,5.8,16,0.00,,---,0.00,VWS V14.01,2013-07-13 00:28:00,
2013-07-12 18:33:00,86.0,34.6,29.82,SSE,166,3.1,4.0,16,0.00,,---,0.00,VWS V14.01,2013-07-13 00:33:00,
2013-07-12 18:38:00,86.4,34.9,29.82,SE,127,0.0,4.0,16,0.00,,---,0.00,VWS V14.01,2013-07-13 00:38:00,
2013-07-12 18:43:00,85.1,28.8,29.82,NNW,345,0.0,4.0,13,0.00,,---,0.00,VWS V14.01,2013-07-13 00:43:00,
2013-07-12 18:48:00,84.0,29.8,29.82,NE,46,0.0,0.0,14,0.00,,---,0.00,VWS V14.01,2013-07-13 00:48:00,
2013-07-12 18:53:00,85.1,28.8,29.82,ENE,61,0.0,3.6,13,0.00,,---,0.00,VWS V14.01,2013-07-13 00:53:00,
2013-07-12 18:58:00,83.7,29.5,29.82,West,274,0.0,3.6,14,0.00,,---,0.00,VWS V14.01,2013-07-13 00:58:00,
2013-07-12 19:03:00,82.2,28.3,29.82,NE,36,0.0,0.0,14,0.00,,---,0.00,VWS V14.01,2013-07-13 01:03:00,
2013-07-12 19:08:00,81.3,27.6,29.82,ENE,57,2.2,4.9,14,0.00,,---,0.00,VWS V14.01,2013-07-13 01:08:00,
2013-07-12 19:13:00,81.5,27.8,29.82,ENE,72,0.0,4.9,14,0.00,,---,0.00,VWS V14.01,2013-07-13 01:13:00,
2013-07-12 19:18:00,81.9,28.0,29.82,NE,55,2.7,2.7,14,0.00,,---,0.00,VWS V14.01,2013-07-13 01:18:00,
2013-07-12 19:23:00,81.7,27.9,29.82,NNE,17,0.0,2.7,14,0.00,,---,0.00,VWS V14.01,2013-07-13 01:23:00,
2013-07-12 19:28:00,81.0,27.3,29.82,North,353,0.0,2.7,14,0.00,,---,0.00,VWS V14.01,2013-07-13 01:28:00,
2013-07-12 19:33:00,80.4,28.6,29.82,North,357,0.0,0.0,15,0.00,,---,0.00,VWS V14.01,2013-07-13 01:33:00,
2013-07-12 19:38:00,79.9,28.1,29.82,North,2,0.0,0.0,15,0.00,,---,0.00,VWS V14.01,2013-07-13 01:38:00,
2013-07-12 19:43:00,78.4,27.0,29.82,North,357,0.0,0.0,15,0.00,,---,0.00,VWS V14.01,2013-07-13 01:43:00,
2013-07-12 19:48:00,78.4,27.0,29.82,WSW,249,0.0,2.2,15,0.00,,---,0.00,VWS V14.01,2013-07-13 01:48:00,
2013-07-12 19:53:00,78.4,27.0,29.82,West,270,0.0,4.9,15,0.00,,---,0.00,VWS V14.01,2013-07-13 01:53:00,
2013-07-12 19:59:00,78.3,26.9,29.82,WSW,247,0.0,4.9,15,0.00,,---,0.00,VWS V14.01,2013-07-13 01:59:00,
2013-07-12 20:04:00,78.1,26.7,29.82,WNW,282,2.2,4.0,15,0.00,,---,0.00,VWS V14.01,2013-07-13 02:04:00,
2013-07-12 20:09:00,77.5,26.3,29.82,NW,306,0.0,4.0,15,0.00,,---,0.00,VWS V14.01,2013-07-13 02:09:00,
2013-07-12 20:14:00,77.0,30.3,29.82,NW,326,0.0,4.0,18,0.00,,---,0.00,VWS V14.01,2013-07-13 02:14:00,
2013-07-12 20:19:00,75.9,29.4,29.82,WSW,256,0.0,0.0,18,0.00,,---,0.00,VWS V14.01,2013-07-13 02:19:00,
2013-07-12 20:24:00,75.2,31.4,29.82,West,265,0.0,0.0,20,0.00,,---,0.00,VWS V14.01,2013-07-13 02:24:00,
2013-07-12 20:29:00,74.7,32.2,29.82,WNW,282,0.0,2.2,21,0.00,,---,0.00,VWS V14.01,2013-07-13 02:29:00,
2013-07-12 20:34:00,74.1,31.7,29.85,WNW,282,0.0,0.0,21,0.00,,---,0.00,VWS V14.01,2013-07-13 02:34:00,
2013-07-12 20:39:00,73.9,31.6,29.85,WNW,282,0.0,0.0,21,0.00,,---,0.00,VWS V14.01,2013-07-13 02:39:00,
2013-07-12 20:44:00,73.9,31.6,29.85,West,275,0.0,3.1,21,0.00,,---,0.00,VWS V14.01,2013-07-13 02:44:00,
2013-07-12 20:49:00,73.6,31.3,29.85,West,275,0.0,0.0,21,0.00,,---,0.00,VWS V14.01,2013-07-13 02:49:00,
2013-07-12 20:54:00,73.0,32.0,29.85,West,275,3.1,3.1,22,0.00,,---,0.00,VWS V14.01,2013-07-13 02:54:00,
2013-07-12 20:59:00,72.7,31.7,29.85,North,0,0.0,3.6,22,0.00,,---,0.00,VWS V14.01,2013-07-13 02:59:00,
2013-07-12 21:04:00,72.0,31.1,29.85,West,281,0.0,2.7,22,0.00,,---,0.00,VWS V14.01,2013-07-13 03:04:00,
2013-07-12 21:09:00,71.2,31.6,29.85,West,281,0.0,2.7,23,0.00,,---,0.00,VWS V14.01,2013-07-13 03:09:00,
2013-07-12 21:14:00,71.1,30.3,29.85,West,281,0.0,2.7,22,0.00,,---,0.00,VWS V14.01,2013-07-13 03:14:00,
2013-07-12 21:19:00,72.0,31.1,29.85,NNW,337,0.0,2.2,22,0.00,,---,0.00,VWS V14.01,2013-07-13 03:19:00,
2013-07-12 21:24:00,72.0,31.1,29.85,NNW,337,0.0,2.2,22,0.00,,---,0.00,VWS V14.01,2013-07-13 03:24:00,
2013-07-12 21:30:00,71.2,30.5,29.85,NNW,337,0.0,2.2,22,0.00,,---,0.00,VWS V14.01,2013-07-13 03:30:00,
2013-07-12 21:35:00,70.3,30.8,29.85,NNW,334,0.0,0.0,23,0.00,,---,0.00,VWS V14.01,2013-07-13 03:35:00,
2013-07-12 21:40:00,69.1,29.8,29.85,WNW,285,0.0,0.0,23,0.00,,---,0.00,VWS V14.01,2013-07-13 03:40:00,
2013-07-12 21:45:00,68.0,29.9,29.85,WNW,285,0.0,0.0,24,0.00,,---,0.00,VWS V14.01,2013-07-13 03:45:00,
2013-07-12 21:50:00,66.9,30.0,29.85,WNW,285,0.0,0.0,25,0.00,,---,0.00,VWS V14.01,2013-07-13 03:50:00,
2013-07-12 21:55:00,66.4,30.5,29.85,WNW,285,0.0,0.0,26,0.00,,---,0.00,VWS V14.01,2013-07-13 03:55:00,
2013-07-12 22:00:00,65.8,31.0,29.85,WNW,285,0.0,0.0,27,0.00,,---,0.00,VWS V14.01,2013-07-13 04:00:00,
2013-07-12 22:01:00,65.8,31.9,29.85,WNW,285,0.0,0.0,28,0.00,,---,0.00,VWS V14.01,2013-07-13 04:01:00,
2013-07-12 22:02:00,65.7,31.7,29.85,WNW,285,0.0,0.0,28,0.00,,---,0.00,VWS V14.01,2013-07-13 04:02:00,
2013-07-12 22:07:00,64.9,32.0,29.85,West,265,0.0,0.0,29,0.00,,---,0.00,VWS V14.01,2013-07-13 04:07:00,
2013-07-12 22:12:00,64.4,32.3,29.85,West,265,0.0,0.0,30,0.00,,---,0.00,VWS V14.01,2013-07-13 04:12:00,
2013-07-12 22:17:00,63.7,33.3,29.85,SSE,153,0.0,3.1,32,0.00,,---,0.00,VWS V14.01,2013-07-13 04:17:00,
2013-07-12 22:22:00,63.3,33.8,29.88,South,178,0.0,3.1,33,0.00,,---,0.00,VWS V14.01,2013-07-13 04:22:00,
2013-07-12 22:27:00,62.8,34.0,29.88,South,178,0.0,3.1,34,0.00,,---,0.00,VWS V14.01,2013-07-13 04:27:00,
2013-07-12 22:32:00,62.2,33.5,29.88,South,178,0.0,0.0,34,0.00,,---,0.00,VWS V14.01,2013-07-13 04:32:00,
2013-07-12 22:37:00,61.9,33.2,29.88,South,178,0.0,0.0,34,0.00,,---,0.00,VWS V14.01,2013-07-13 04:37:00,
2013-07-12 22:42:00,61.5,32.9,29.88,South,178,0.0,0.0,34,0.00,,---,0.00,VWS V14.01,2013-07-13 04:42:00,
2013-07-12 22:47:00,61.3,33.5,29.88,South,178,0.0,0.0,35,0.00,,---,0.00,VWS V14.01,2013-07-13 04:47:00,
2013-07-12 22:52:00,60.8,33.0,29.88,South,178,0.0,0.0,35,0.00,,---,0.00,VWS V14.01,2013-07-13 04:52:00,
2013-07-12 22:57:00,60.4,33.4,29.88,South,178,0.0,0.0,36,0.00,,---,0.00,VWS V14.01,2013-07-13 04:57:00,
2013-07-12 23:02:00,60.3,33.2,29.88,SSW,199,0.0,0.0,36,0.00,,---,0.00,VWS V14.01,2013-07-13 05:02:00,
2013-07-12 23:07:00,60.1,33.1,29.88,SSW,199,0.0,0.0,36,0.00,,---,0.00,VWS V14.01,2013-07-13 05:07:00,
2013-07-12 23:12:00,59.7,32.7,29.88,SSW,199,0.0,0.0,36,0.00,,---,0.00,VWS V14.01,2013-07-13 05:12:00,
2013-07-12 23:17:00,59.4,32.4,29.88,SSW,199,0.0,0.0,36,0.00,,---,0.00,VWS V14.01,2013-07-13 05:17:00,
2013-07-12 23:22:00,59.2,33.6,29.88,West,265,0.0,0.0,38,0.00,,---,0.00,VWS V14.01,2013-07-13 05:22:00,
2013-07-12 23:27:00,59.4,33.8,29.88,West,260,0.0,2.7,38,0.00,,---,0.00,VWS V14.01,2013-07-13 05:27:00,
2013-07-12 23:32:00,59.4,33.8,29.88,West,262,0.0,0.0,38,0.00,,---,0.00,VWS V14.01,2013-07-13 05:32:00,
2013-07-12 23:37:00,59.4,33.1,29.88,West,260,0.0,0.0,37,0.00,,---,0.00,VWS V14.01,2013-07-13 05:37:00,
2013-07-12 23:42:00,59.4,33.1,29.88,WSW,248,0.0,0.0,37,0.00,,---,0.00,VWS V14.01,2013-07-13 05:42:00,
2013-07-12 23:47:00,59.2,33.0,29.88,SSW,195,0.0,0.0,37,0.00,,---,0.00,VWS V14.01,2013-07-13 05:47:00,
2013-07-12 23:52:00,58.8,32.6,29.88,SW,221,0.0,0.0,37,0.00,,---,0.00,VWS V14.01,2013-07-13 05:52:00,
2013-07-12 23:57:00,59.2,33.0,29.88,WSW,247,0.0,0.0,37,0.00,,---,0.00,VWS V14.01,2013-07-13 05:57:00,